sensor_id;sensor_type;location;lat;lon;timestamp;P1;durP1;ratioP1;P2;durP2;ratioP2
37955;SDS011;23776;51.592;7.180;2023-11-21T00:00:12;16.73;;;7.13;;
37955;SDS011;23776;51.592;7.180;2023-11-21T00:02:40;13.57;;;6.78;;
37955;SDS011;23776;51.592;7.180;2023-11-21T00:05:07;15.88;;;6.65;;
37955;SDS011;23776;51.592;7.180;2023-11-21T00:07:34;18.73;;;7.43;;
37955;SDS011;23776;51.592;7.180;2023-11-21T00:10:00;16.08;;;7.00;;
37955;SDS011;23776;51.592;7.180;2023-11-21T00:12:26;13.73;;;6.15;;
37955;SDS011;23776;51.592;7.180;2023-11-21T00:14:54;24.05;;;7.13;;
37955;SDS011;23776;51.592;7.180;2023-11-21T00:17:19;22.38;;;6.80;;
37955;SDS011;23776;51.592;7.180;2023-11-21T00:19:45;17.42;;;6.72;;
37955;SDS011;23776;51.592;7.180;2023-11-21T00:22:10;15.02;;;7.55;;
37955;SDS011;23776;51.592;7.180;2023-11-21T00:24:36;23.63;;;9.73;;
37955;SDS011;23776;51.592;7.180;2023-11-21T00:27:02;16.58;;;8.63;;
37955;SDS011;23776;51.592;7.180;2023-11-21T00:29:27;22.90;;;7.93;;
37955;SDS011;23776;51.592;7.180;2023-11-21T00:31:53;20.05;;;8.73;;
37955;SDS011;23776;51.592;7.180;2023-11-21T00:34:19;26.25;;;10.68;;
37955;SDS011;23776;51.592;7.180;2023-11-21T00:36:44;32.72;;;11.07;;
37955;SDS011;23776;51.592;7.180;2023-11-21T00:39:10;25.63;;;10.60;;
37955;SDS011;23776;51.592;7.180;2023-11-21T00:41:36;33.47;;;11.10;;
37955;SDS011;23776;51.592;7.180;2023-11-21T00:44:02;24.20;;;10.23;;
37955;SDS011;23776;51.592;7.180;2023-11-21T00:46:28;24.75;;;10.73;;
37955;SDS011;23776;51.592;7.180;2023-11-21T00:48:54;25.25;;;10.68;;
37955;SDS011;23776;51.592;7.180;2023-11-21T00:51:20;34.08;;;12.32;;
37955;SDS011;23776;51.592;7.180;2023-11-21T00:53:47;27.70;;;10.88;;
37955;SDS011;23776;51.592;7.180;2023-11-21T00:56:13;25.73;;;9.77;;
37955;SDS011;23776;51.592;7.180;2023-11-21T00:58:39;22.05;;;10.43;;
37955;SDS011;23776;51.592;7.180;2023-11-21T01:01:08;20.20;;;9.95;;
37955;SDS011;23776;51.592;7.180;2023-11-21T01:03:34;26.40;;;9.05;;
37955;SDS011;23776;51.592;7.180;2023-11-21T01:05:59;26.77;;;9.23;;
37955;SDS011;23776;51.592;7.180;2023-11-21T01:08:25;26.48;;;8.85;;
37955;SDS011;23776;51.592;7.180;2023-11-21T01:10:51;22.73;;;8.88;;
37955;SDS011;23776;51.592;7.180;2023-11-21T01:13:16;27.90;;;10.15;;
37955;SDS011;23776;51.592;7.180;2023-11-21T01:15:42;22.30;;;9.02;;
37955;SDS011;23776;51.592;7.180;2023-11-21T01:18:07;29.58;;;9.75;;
37955;SDS011;23776;51.592;7.180;2023-11-21T01:20:36;28.67;;;9.00;;
37955;SDS011;23776;51.592;7.180;2023-11-21T01:23:01;27.63;;;10.38;;
37955;SDS011;23776;51.592;7.180;2023-11-21T01:25:27;22.38;;;9.88;;
37955;SDS011;23776;51.592;7.180;2023-11-21T01:27:53;22.25;;;9.70;;
37955;SDS011;23776;51.592;7.180;2023-11-21T01:30:18;21.45;;;9.18;;
37955;SDS011;23776;51.592;7.180;2023-11-21T01:32:44;22.35;;;10.00;;
37955;SDS011;23776;51.592;7.180;2023-11-21T01:35:10;20.33;;;9.02;;
37955;SDS011;23776;51.592;7.180;2023-11-21T01:37:36;18.80;;;9.55;;
37955;SDS011;23776;51.592;7.180;2023-11-21T01:40:02;26.98;;;9.15;;
37955;SDS011;23776;51.592;7.180;2023-11-21T01:42:33;24.50;;;10.40;;
37955;SDS011;23776;51.592;7.180;2023-11-21T01:44:59;29.25;;;10.98;;
37955;SDS011;23776;51.592;7.180;2023-11-21T01:47:30;18.45;;;9.27;;
37955;SDS011;23776;51.592;7.180;2023-11-21T01:49:57;23.65;;;9.77;;
37955;SDS011;23776;51.592;7.180;2023-11-21T01:52:23;22.60;;;9.20;;
37955;SDS011;23776;51.592;7.180;2023-11-21T01:54:49;21.17;;;9.30;;
37955;SDS011;23776;51.592;7.180;2023-11-21T01:57:15;27.95;;;10.23;;
37955;SDS011;23776;51.592;7.180;2023-11-21T01:59:41;21.55;;;9.57;;
37955;SDS011;23776;51.592;7.180;2023-11-21T02:02:07;24.63;;;9.63;;
37955;SDS011;23776;51.592;7.180;2023-11-21T02:04:34;25.02;;;10.13;;
37955;SDS011;23776;51.592;7.180;2023-11-21T02:07:01;21.85;;;9.73;;
37955;SDS011;23776;51.592;7.180;2023-11-21T02:09:31;25.23;;;9.45;;
37955;SDS011;23776;51.592;7.180;2023-11-21T02:11:59;27.30;;;10.55;;
37955;SDS011;23776;51.592;7.180;2023-11-21T02:14:25;28.60;;;11.13;;
37955;SDS011;23776;51.592;7.180;2023-11-21T02:16:52;30.80;;;9.82;;
37955;SDS011;23776;51.592;7.180;2023-11-21T02:19:19;24.30;;;9.93;;
37955;SDS011;23776;51.592;7.180;2023-11-21T02:21:51;29.77;;;11.23;;
37955;SDS011;23776;51.592;7.180;2023-11-21T02:24:18;35.35;;;10.30;;
37955;SDS011;23776;51.592;7.180;2023-11-21T02:26:45;21.52;;;9.32;;
37955;SDS011;23776;51.592;7.180;2023-11-21T02:29:11;24.73;;;9.55;;
37955;SDS011;23776;51.592;7.180;2023-11-21T02:31:38;25.17;;;9.93;;
37955;SDS011;23776;51.592;7.180;2023-11-21T02:34:12;23.05;;;9.52;;
37955;SDS011;23776;51.592;7.180;2023-11-21T02:36:39;22.13;;;9.30;;
37955;SDS011;23776;51.592;7.180;2023-11-21T02:39:05;20.80;;;9.50;;
37955;SDS011;23776;51.592;7.180;2023-11-21T02:41:32;32.72;;;11.05;;
37955;SDS011;23776;51.592;7.180;2023-11-21T02:43:57;24.02;;;9.93;;
37955;SDS011;23776;51.592;7.180;2023-11-21T02:46:23;28.13;;;10.07;;
37955;SDS011;23776;51.592;7.180;2023-11-21T02:48:49;28.50;;;10.10;;
37955;SDS011;23776;51.592;7.180;2023-11-21T02:51:16;34.75;;;10.93;;
37955;SDS011;23776;51.592;7.180;2023-11-21T02:53:41;21.67;;;10.13;;
37955;SDS011;23776;51.592;7.180;2023-11-21T02:56:07;24.38;;;10.23;;
37955;SDS011;23776;51.592;7.180;2023-11-21T02:58:33;24.20;;;10.15;;
37955;SDS011;23776;51.592;7.180;2023-11-21T03:00:58;27.33;;;9.98;;
37955;SDS011;23776;51.592;7.180;2023-11-21T03:03:24;24.88;;;9.48;;
37955;SDS011;23776;51.592;7.180;2023-11-21T03:05:50;26.92;;;9.52;;
37955;SDS011;23776;51.592;7.180;2023-11-21T03:08:16;24.50;;;11.25;;
37955;SDS011;23776;51.592;7.180;2023-11-21T03:10:41;28.77;;;10.93;;
37955;SDS011;23776;51.592;7.180;2023-11-21T03:13:07;20.25;;;11.02;;
37955;SDS011;23776;51.592;7.180;2023-11-21T03:15:33;27.17;;;10.07;;
37955;SDS011;23776;51.592;7.180;2023-11-21T03:18:00;20.30;;;9.40;;
37955;SDS011;23776;51.592;7.180;2023-11-21T03:20:25;26.20;;;10.07;;
37955;SDS011;23776;51.592;7.180;2023-11-21T03:22:51;18.35;;;8.95;;
37955;SDS011;23776;51.592;7.180;2023-11-21T03:25:16;26.48;;;8.70;;
37955;SDS011;23776;51.592;7.180;2023-11-21T03:27:42;24.48;;;10.18;;
37955;SDS011;23776;51.592;7.180;2023-11-21T03:30:09;26.10;;;9.85;;
37955;SDS011;23776;51.592;7.180;2023-11-21T03:32:36;28.13;;;10.18;;
37955;SDS011;23776;51.592;7.180;2023-11-21T03:35:02;21.25;;;10.48;;
37955;SDS011;23776;51.592;7.180;2023-11-21T03:37:28;25.10;;;9.48;;
37955;SDS011;23776;51.592;7.180;2023-11-21T03:39:54;24.40;;;9.55;;
37955;SDS011;23776;51.592;7.180;2023-11-21T03:42:21;21.60;;;9.02;;
37955;SDS011;23776;51.592;7.180;2023-11-21T03:44:47;18.67;;;9.43;;
37955;SDS011;23776;51.592;7.180;2023-11-21T03:47:12;19.58;;;8.60;;
37955;SDS011;23776;51.592;7.180;2023-11-21T03:49:38;25.02;;;9.60;;
37955;SDS011;23776;51.592;7.180;2023-11-21T03:52:04;22.23;;;9.10;;
37955;SDS011;23776;51.592;7.180;2023-11-21T03:54:30;20.55;;;9.25;;
37955;SDS011;23776;51.592;7.180;2023-11-21T03:56:55;19.65;;;8.95;;
37955;SDS011;23776;51.592;7.180;2023-11-21T03:59:21;18.00;;;8.80;;
37955;SDS011;23776;51.592;7.180;2023-11-21T04:01:49;21.13;;;9.23;;
37955;SDS011;23776;51.592;7.180;2023-11-21T04:04:15;18.27;;;8.77;;
37955;SDS011;23776;51.592;7.180;2023-11-21T04:06:41;23.70;;;9.05;;
37955;SDS011;23776;51.592;7.180;2023-11-21T04:09:06;25.52;;;9.35;;
37955;SDS011;23776;51.592;7.180;2023-11-21T04:11:32;20.30;;;9.15;;
37955;SDS011;23776;51.592;7.180;2023-11-21T04:13:58;24.95;;;10.00;;
37955;SDS011;23776;51.592;7.180;2023-11-21T04:16:24;21.08;;;9.95;;
37955;SDS011;23776;51.592;7.180;2023-11-21T04:18:49;19.35;;;9.27;;
37955;SDS011;23776;51.592;7.180;2023-11-21T04:21:15;18.15;;;8.98;;
37955;SDS011;23776;51.592;7.180;2023-11-21T04:23:41;23.13;;;9.48;;
37955;SDS011;23776;51.592;7.180;2023-11-21T04:26:07;24.40;;;10.25;;
37955;SDS011;23776;51.592;7.180;2023-11-21T04:28:33;24.05;;;9.88;;
37955;SDS011;23776;51.592;7.180;2023-11-21T04:30:59;27.33;;;10.02;;
37955;SDS011;23776;51.592;7.180;2023-11-21T04:33:25;22.38;;;8.98;;
37955;SDS011;23776;51.592;7.180;2023-11-21T04:35:50;20.15;;;9.18;;
37955;SDS011;23776;51.592;7.180;2023-11-21T04:38:16;27.17;;;9.90;;
37955;SDS011;23776;51.592;7.180;2023-11-21T04:40:42;19.85;;;8.45;;
37955;SDS011;23776;51.592;7.180;2023-11-21T04:43:07;23.60;;;9.70;;
37955;SDS011;23776;51.592;7.180;2023-11-21T04:45:34;22.92;;;9.50;;
37955;SDS011;23776;51.592;7.180;2023-11-21T04:47:59;22.73;;;10.40;;
37955;SDS011;23776;51.592;7.180;2023-11-21T04:50:25;24.42;;;11.48;;
37955;SDS011;23776;51.592;7.180;2023-11-21T04:52:53;23.73;;;10.52;;
37955;SDS011;23776;51.592;7.180;2023-11-21T04:55:19;22.60;;;10.68;;
37955;SDS011;23776;51.592;7.180;2023-11-21T04:57:44;26.23;;;10.77;;
37955;SDS011;23776;51.592;7.180;2023-11-21T05:00:12;23.08;;;10.63;;
37955;SDS011;23776;51.592;7.180;2023-11-21T05:02:37;26.60;;;11.98;;
37955;SDS011;23776;51.592;7.180;2023-11-21T05:05:04;23.10;;;9.63;;
37955;SDS011;23776;51.592;7.180;2023-11-21T05:07:30;29.83;;;11.52;;
37955;SDS011;23776;51.592;7.180;2023-11-21T05:09:57;27.95;;;11.30;;
37955;SDS011;23776;51.592;7.180;2023-11-21T05:12:24;29.27;;;11.30;;
37955;SDS011;23776;51.592;7.180;2023-11-21T05:14:50;24.08;;;11.32;;
37955;SDS011;23776;51.592;7.180;2023-11-21T05:17:16;29.35;;;11.25;;
37955;SDS011;23776;51.592;7.180;2023-11-21T05:19:42;32.58;;;11.45;;
37955;SDS011;23776;51.592;7.180;2023-11-21T05:22:10;26.33;;;11.57;;
37955;SDS011;23776;51.592;7.180;2023-11-21T05:24:37;32.88;;;10.98;;
37955;SDS011;23776;51.592;7.180;2023-11-21T05:27:04;28.13;;;12.07;;
37955;SDS011;23776;51.592;7.180;2023-11-21T05:29:29;31.20;;;12.00;;
37955;SDS011;23776;51.592;7.180;2023-11-21T05:31:55;27.98;;;12.73;;
37955;SDS011;23776;51.592;7.180;2023-11-21T05:34:20;30.85;;;11.93;;
37955;SDS011;23776;51.592;7.180;2023-11-21T05:36:48;40.17;;;14.38;;
37955;SDS011;23776;51.592;7.180;2023-11-21T05:39:15;38.35;;;12.70;;
37955;SDS011;23776;51.592;7.180;2023-11-21T05:41:42;30.33;;;11.50;;
37955;SDS011;23776;51.592;7.180;2023-11-21T05:44:08;33.25;;;11.77;;
37955;SDS011;23776;51.592;7.180;2023-11-21T05:46:34;28.67;;;12.02;;
37955;SDS011;23776;51.592;7.180;2023-11-21T05:48:59;41.40;;;13.40;;
37955;SDS011;23776;51.592;7.180;2023-11-21T05:51:25;30.92;;;12.48;;
37955;SDS011;23776;51.592;7.180;2023-11-21T05:53:51;33.95;;;12.00;;
37955;SDS011;23776;51.592;7.180;2023-11-21T05:56:16;29.15;;;12.60;;
37955;SDS011;23776;51.592;7.180;2023-11-21T05:58:43;29.83;;;12.45;;
37955;SDS011;23776;51.592;7.180;2023-11-21T06:01:08;30.42;;;12.13;;
37955;SDS011;23776;51.592;7.180;2023-11-21T06:03:37;28.42;;;11.07;;
37955;SDS011;23776;51.592;7.180;2023-11-21T06:06:03;30.27;;;11.65;;
37955;SDS011;23776;51.592;7.180;2023-11-21T06:08:29;27.73;;;12.20;;
37955;SDS011;23776;51.592;7.180;2023-11-21T06:10:55;26.75;;;11.52;;
37955;SDS011;23776;51.592;7.180;2023-11-21T06:13:20;23.50;;;11.25;;
37955;SDS011;23776;51.592;7.180;2023-11-21T06:15:49;25.08;;;10.43;;
37955;SDS011;23776;51.592;7.180;2023-11-21T06:18:15;27.90;;;12.05;;
37955;SDS011;23776;51.592;7.180;2023-11-21T06:20:44;22.45;;;11.13;;
37955;SDS011;23776;51.592;7.180;2023-11-21T06:23:10;26.77;;;11.30;;
37955;SDS011;23776;51.592;7.180;2023-11-21T06:25:36;38.47;;;13.73;;
37955;SDS011;23776;51.592;7.180;2023-11-21T06:28:02;36.63;;;14.13;;
37955;SDS011;23776;51.592;7.180;2023-11-21T06:30:27;42.67;;;15.45;;
37955;SDS011;23776;51.592;7.180;2023-11-21T06:32:53;37.53;;;14.55;;
37955;SDS011;23776;51.592;7.180;2023-11-21T06:35:20;41.42;;;15.38;;
37955;SDS011;23776;51.592;7.180;2023-11-21T06:37:46;30.63;;;12.98;;
37955;SDS011;23776;51.592;7.180;2023-11-21T06:40:16;34.65;;;13.95;;
37955;SDS011;23776;51.592;7.180;2023-11-21T06:42:43;39.83;;;14.40;;
37955;SDS011;23776;51.592;7.180;2023-11-21T06:45:09;32.40;;;13.63;;
37955;SDS011;23776;51.592;7.180;2023-11-21T06:47:36;32.10;;;12.63;;
37955;SDS011;23776;51.592;7.180;2023-11-21T06:50:02;34.67;;;13.10;;
37955;SDS011;23776;51.592;7.180;2023-11-21T06:52:29;32.15;;;13.00;;
37955;SDS011;23776;51.592;7.180;2023-11-21T06:54:54;34.60;;;14.38;;
37955;SDS011;23776;51.592;7.180;2023-11-21T06:57:20;38.33;;;14.15;;
37955;SDS011;23776;51.592;7.180;2023-11-21T06:59:48;31.95;;;11.70;;
37955;SDS011;23776;51.592;7.180;2023-11-21T07:02:15;30.27;;;12.75;;
37955;SDS011;23776;51.592;7.180;2023-11-21T07:04:43;31.85;;;12.00;;
37955;SDS011;23776;51.592;7.180;2023-11-21T07:07:10;34.45;;;13.90;;
37955;SDS011;23776;51.592;7.180;2023-11-21T07:09:35;33.70;;;14.40;;
37955;SDS011;23776;51.592;7.180;2023-11-21T07:12:01;40.35;;;14.15;;
37955;SDS011;23776;51.592;7.180;2023-11-21T07:14:28;36.67;;;14.43;;
37955;SDS011;23776;51.592;7.180;2023-11-21T07:16:54;33.35;;;14.77;;
37955;SDS011;23776;51.592;7.180;2023-11-21T07:19:20;36.50;;;15.00;;
37955;SDS011;23776;51.592;7.180;2023-11-21T07:21:46;35.38;;;14.23;;
37955;SDS011;23776;51.592;7.180;2023-11-21T07:24:15;42.17;;;15.40;;
37955;SDS011;23776;51.592;7.180;2023-11-21T07:26:41;43.47;;;14.88;;
37955;SDS011;23776;51.592;7.180;2023-11-21T07:29:06;38.42;;;14.27;;
37955;SDS011;23776;51.592;7.180;2023-11-21T07:31:32;41.80;;;16.77;;
37955;SDS011;23776;51.592;7.180;2023-11-21T07:34:01;42.83;;;16.48;;
37955;SDS011;23776;51.592;7.180;2023-11-21T07:36:26;33.22;;;14.18;;
37955;SDS011;23776;51.592;7.180;2023-11-21T07:38:52;44.78;;;16.77;;
37955;SDS011;23776;51.592;7.180;2023-11-21T07:41:18;33.90;;;14.85;;
37955;SDS011;23776;51.592;7.180;2023-11-21T07:43:44;42.00;;;15.82;;
37955;SDS011;23776;51.592;7.180;2023-11-21T07:46:11;34.88;;;13.70;;
37955;SDS011;23776;51.592;7.180;2023-11-21T07:48:38;40.50;;;15.27;;
37955;SDS011;23776;51.592;7.180;2023-11-21T07:51:04;37.10;;;15.18;;
37955;SDS011;23776;51.592;7.180;2023-11-21T07:53:30;39.78;;;15.98;;
37955;SDS011;23776;51.592;7.180;2023-11-21T07:55:56;37.47;;;15.57;;
37955;SDS011;23776;51.592;7.180;2023-11-21T07:58:23;43.75;;;17.80;;
37955;SDS011;23776;51.592;7.180;2023-11-21T08:00:49;43.22;;;16.98;;
37955;SDS011;23776;51.592;7.180;2023-11-21T08:03:15;47.00;;;17.55;;
37955;SDS011;23776;51.592;7.180;2023-11-21T08:05:41;48.20;;;18.05;;
37955;SDS011;23776;51.592;7.180;2023-11-21T08:08:06;57.55;;;18.33;;
37955;SDS011;23776;51.592;7.180;2023-11-21T08:10:32;50.83;;;19.33;;
37955;SDS011;23776;51.592;7.180;2023-11-21T08:12:58;64.97;;;21.35;;
37955;SDS011;23776;51.592;7.180;2023-11-21T08:15:24;76.70;;;24.08;;
37955;SDS011;23776;51.592;7.180;2023-11-21T08:17:50;92.55;;;27.25;;
37955;SDS011;23776;51.592;7.180;2023-11-21T08:20:15;84.43;;;25.10;;
37955;SDS011;23776;51.592;7.180;2023-11-21T08:22:43;84.97;;;24.52;;
37955;SDS011;23776;51.592;7.180;2023-11-21T08:25:09;89.60;;;29.40;;
37955;SDS011;23776;51.592;7.180;2023-11-21T08:27:41;83.18;;;25.73;;
37955;SDS011;23776;51.592;7.180;2023-11-21T08:30:07;86.22;;;27.75;;
37955;SDS011;23776;51.592;7.180;2023-11-21T08:32:33;71.95;;;25.23;;
37955;SDS011;23776;51.592;7.180;2023-11-21T08:34:59;70.95;;;26.30;;
37955;SDS011;23776;51.592;7.180;2023-11-21T08:37:26;78.05;;;26.48;;
37955;SDS011;23776;51.592;7.180;2023-11-21T08:39:52;86.70;;;27.27;;
37955;SDS011;23776;51.592;7.180;2023-11-21T08:42:18;76.38;;;26.48;;
37955;SDS011;23776;51.592;7.180;2023-11-21T08:44:44;93.88;;;30.77;;
37955;SDS011;23776;51.592;7.180;2023-11-21T08:47:09;81.70;;;26.85;;
37955;SDS011;23776;51.592;7.180;2023-11-21T08:49:35;97.85;;;28.98;;
37955;SDS011;23776;51.592;7.180;2023-11-21T08:52:01;92.57;;;29.33;;
37955;SDS011;23776;51.592;7.180;2023-11-21T08:54:27;87.95;;;28.13;;
37955;SDS011;23776;51.592;7.180;2023-11-21T08:56:53;83.38;;;25.73;;
37955;SDS011;23776;51.592;7.180;2023-11-21T08:59:19;80.68;;;26.15;;
37955;SDS011;23776;51.592;7.180;2023-11-21T09:01:46;93.63;;;28.55;;
37955;SDS011;23776;51.592;7.180;2023-11-21T09:04:12;86.03;;;28.08;;
37955;SDS011;23776;51.592;7.180;2023-11-21T09:06:38;80.60;;;25.00;;
37955;SDS011;23776;51.592;7.180;2023-11-21T09:09:04;78.15;;;26.25;;
37955;SDS011;23776;51.592;7.180;2023-11-21T09:11:31;76.38;;;25.90;;
37955;SDS011;23776;51.592;7.180;2023-11-21T09:13:59;67.60;;;22.80;;
37955;SDS011;23776;51.592;7.180;2023-11-21T09:16:25;87.05;;;28.35;;
37955;SDS011;23776;51.592;7.180;2023-11-21T09:18:50;82.90;;;26.25;;
37955;SDS011;23776;51.592;7.180;2023-11-21T09:21:16;84.85;;;26.25;;
37955;SDS011;23776;51.592;7.180;2023-11-21T09:23:43;73.70;;;25.55;;
37955;SDS011;23776;51.592;7.180;2023-11-21T09:26:09;72.13;;;23.48;;
37955;SDS011;23776;51.592;7.180;2023-11-21T09:28:35;64.55;;;21.77;;
37955;SDS011;23776;51.592;7.180;2023-11-21T09:31:03;67.25;;;24.92;;
37955;SDS011;23776;51.592;7.180;2023-11-21T09:33:33;70.90;;;23.80;;
37955;SDS011;23776;51.592;7.180;2023-11-21T09:35:59;66.28;;;23.85;;
37955;SDS011;23776;51.592;7.180;2023-11-21T09:38:25;60.50;;;22.30;;
37955;SDS011;23776;51.592;7.180;2023-11-21T09:40:50;56.60;;;21.88;;
37955;SDS011;23776;51.592;7.180;2023-11-21T09:43:18;66.95;;;21.35;;
37955;SDS011;23776;51.592;7.180;2023-11-21T09:45:45;54.35;;;20.02;;
37955;SDS011;23776;51.592;7.180;2023-11-21T09:48:13;53.40;;;20.83;;
37955;SDS011;23776;51.592;7.180;2023-11-21T09:50:41;53.33;;;20.60;;
37955;SDS011;23776;51.592;7.180;2023-11-21T09:53:16;51.20;;;19.92;;
37955;SDS011;23776;51.592;7.180;2023-11-21T09:55:46;55.78;;;20.83;;
37955;SDS011;23776;51.592;7.180;2023-11-21T09:58:13;50.42;;;19.55;;
37955;SDS011;23776;51.592;7.180;2023-11-21T10:00:40;52.42;;;19.88;;
37955;SDS011;23776;51.592;7.180;2023-11-21T10:03:10;56.90;;;21.38;;
37955;SDS011;23776;51.592;7.180;2023-11-21T10:05:36;56.55;;;22.83;;
37955;SDS011;23776;51.592;7.180;2023-11-21T10:08:12;56.00;;;21.48;;
37955;SDS011;23776;51.592;7.180;2023-11-21T10:10:38;46.83;;;20.38;;
37955;SDS011;23776;51.592;7.180;2023-11-21T10:13:11;54.03;;;20.43;;
37955;SDS011;23776;51.592;7.180;2023-11-21T10:15:41;43.45;;;19.67;;
37955;SDS011;23776;51.592;7.180;2023-11-21T10:18:09;45.88;;;19.75;;
37955;SDS011;23776;51.592;7.180;2023-11-21T10:20:35;46.38;;;19.00;;
37955;SDS011;23776;51.592;7.180;2023-11-21T10:23:03;46.42;;;19.95;;
37955;SDS011;23776;51.592;7.180;2023-11-21T10:25:29;53.58;;;20.90;;
37955;SDS011;23776;51.592;7.180;2023-11-21T10:27:59;45.17;;;21.45;;
37955;SDS011;23776;51.592;7.180;2023-11-21T10:30:39;47.85;;;19.50;;
37955;SDS011;23776;51.592;7.180;2023-11-21T10:33:05;43.97;;;18.20;;
37955;SDS011;23776;51.592;7.180;2023-11-21T10:35:48;39.03;;;16.67;;
37955;SDS011;23776;51.592;7.180;2023-11-21T10:38:20;36.60;;;15.43;;
37955;SDS011;23776;51.592;7.180;2023-11-21T10:40:48;37.05;;;15.10;;
37955;SDS011;23776;51.592;7.180;2023-11-21T10:43:14;46.45;;;17.20;;
37955;SDS011;23776;51.592;7.180;2023-11-21T10:45:41;47.35;;;20.35;;
37955;SDS011;23776;51.592;7.180;2023-11-21T10:48:12;48.25;;;19.35;;
37955;SDS011;23776;51.592;7.180;2023-11-21T10:50:42;39.28;;;18.38;;
37955;SDS011;23776;51.592;7.180;2023-11-21T10:53:09;45.88;;;19.88;;
37955;SDS011;23776;51.592;7.180;2023-11-21T10:55:37;48.17;;;19.15;;
37955;SDS011;23776;51.592;7.180;2023-11-21T10:58:03;49.97;;;19.17;;
37955;SDS011;23776;51.592;7.180;2023-11-21T11:00:31;41.88;;;18.05;;
37955;SDS011;23776;51.592;7.180;2023-11-21T11:02:57;43.63;;;18.35;;
37955;SDS011;23776;51.592;7.180;2023-11-21T11:05:25;52.20;;;21.42;;
37955;SDS011;23776;51.592;7.180;2023-11-21T11:10:28;52.38;;;19.40;;
37955;SDS011;23776;51.592;7.180;2023-11-21T11:12:54;54.55;;;21.23;;
37955;SDS011;23776;51.592;7.180;2023-11-21T11:15:22;52.95;;;21.95;;
37955;SDS011;23776;51.592;7.180;2023-11-21T11:17:48;51.80;;;20.52;;
37955;SDS011;23776;51.592;7.180;2023-11-21T11:20:15;52.90;;;20.83;;
37955;SDS011;23776;51.592;7.180;2023-11-21T11:28:42;50.17;;;21.30;;
37955;SDS011;23776;51.592;7.180;2023-11-21T11:33:54;47.45;;;20.48;;
37955;SDS011;23776;51.592;7.180;2023-11-21T11:36:34;47.58;;;20.00;;
37955;SDS011;23776;51.592;7.180;2023-11-21T11:39:27;51.30;;;20.75;;
37955;SDS011;23776;51.592;7.180;2023-11-21T11:41:57;48.50;;;19.52;;
37955;SDS011;23776;51.592;7.180;2023-11-21T11:47:20;43.30;;;17.55;;
37955;SDS011;23776;51.592;7.180;2023-11-21T11:49:56;35.22;;;16.00;;
37955;SDS011;23776;51.592;7.180;2023-11-21T11:52:45;43.47;;;16.13;;
37955;SDS011;23776;51.592;7.180;2023-11-21T11:55:14;35.92;;;16.23;;
37955;SDS011;23776;51.592;7.180;2023-11-21T11:57:44;37.80;;;16.65;;
37955;SDS011;23776;51.592;7.180;2023-11-21T12:00:16;31.83;;;14.75;;
37955;SDS011;23776;51.592;7.180;2023-11-21T12:02:59;35.40;;;13.38;;
37955;SDS011;23776;51.592;7.180;2023-11-21T12:05:28;35.90;;;13.77;;
37955;SDS011;23776;51.592;7.180;2023-11-21T12:07:56;28.83;;;13.63;;
37955;SDS011;23776;51.592;7.180;2023-11-21T12:10:23;26.70;;;12.40;;
37955;SDS011;23776;51.592;7.180;2023-11-21T12:15:26;25.90;;;12.15;;
37955;SDS011;23776;51.592;7.180;2023-11-21T12:17:56;29.92;;;12.95;;
37955;SDS011;23776;51.592;7.180;2023-11-21T12:20:24;28.77;;;12.52;;
37955;SDS011;23776;51.592;7.180;2023-11-21T12:22:51;31.08;;;12.30;;
37955;SDS011;23776;51.592;7.180;2023-11-21T12:25:19;30.67;;;14.40;;
37955;SDS011;23776;51.592;7.180;2023-11-21T12:27:50;31.55;;;13.95;;
37955;SDS011;23776;51.592;7.180;2023-11-21T12:30:21;32.17;;;13.73;;
37955;SDS011;23776;51.592;7.180;2023-11-21T12:32:48;27.45;;;13.18;;
37955;SDS011;23776;51.592;7.180;2023-11-21T12:35:22;27.20;;;11.57;;
37955;SDS011;23776;51.592;7.180;2023-11-21T12:37:51;23.60;;;10.70;;
37955;SDS011;23776;51.592;7.180;2023-11-21T12:40:18;22.55;;;9.52;;
37955;SDS011;23776;51.592;7.180;2023-11-21T12:42:45;19.95;;;9.02;;
37955;SDS011;23776;51.592;7.180;2023-11-21T12:47:42;26.52;;;10.18;;
37955;SDS011;23776;51.592;7.180;2023-11-21T12:50:09;18.65;;;9.52;;
37955;SDS011;23776;51.592;7.180;2023-11-21T12:52:45;25.13;;;11.40;;
37955;SDS011;23776;51.592;7.180;2023-11-21T12:55:31;26.77;;;11.70;;
37955;SDS011;23776;51.592;7.180;2023-11-21T12:57:57;26.83;;;11.40;;
37955;SDS011;23776;51.592;7.180;2023-11-21T13:00:34;31.08;;;12.27;;
37955;SDS011;23776;51.592;7.180;2023-11-21T13:03:11;26.08;;;11.82;;
37955;SDS011;23776;51.592;7.180;2023-11-21T13:05:40;27.63;;;11.93;;
37955;SDS011;23776;51.592;7.180;2023-11-21T13:08:15;30.80;;;13.32;;
37955;SDS011;23776;51.592;7.180;2023-11-21T13:10:45;30.45;;;12.52;;
37955;SDS011;23776;51.592;7.180;2023-11-21T13:13:13;35.50;;;12.35;;
37955;SDS011;23776;51.592;7.180;2023-11-21T13:15:49;25.77;;;11.32;;
37955;SDS011;23776;51.592;7.180;2023-11-21T13:18:17;25.58;;;11.43;;
37955;SDS011;23776;51.592;7.180;2023-11-21T13:20:43;29.00;;;12.40;;
37955;SDS011;23776;51.592;7.180;2023-11-21T13:23:10;24.90;;;10.63;;
37955;SDS011;23776;51.592;7.180;2023-11-21T13:25:37;26.05;;;10.90;;
37955;SDS011;23776;51.592;7.180;2023-11-21T13:28:05;27.25;;;10.73;;
37955;SDS011;23776;51.592;7.180;2023-11-21T13:30:32;24.77;;;10.73;;
37955;SDS011;23776;51.592;7.180;2023-11-21T13:33:03;27.08;;;11.80;;
37955;SDS011;23776;51.592;7.180;2023-11-21T13:35:35;26.15;;;11.43;;
37955;SDS011;23776;51.592;7.180;2023-11-21T13:38:07;22.10;;;10.00;;
37955;SDS011;23776;51.592;7.180;2023-11-21T13:40:34;24.35;;;10.25;;
37955;SDS011;23776;51.592;7.180;2023-11-21T13:43:15;23.50;;;10.48;;
37955;SDS011;23776;51.592;7.180;2023-11-21T13:45:43;28.23;;;10.75;;
37955;SDS011;23776;51.592;7.180;2023-11-21T13:48:10;24.25;;;10.50;;
37955;SDS011;23776;51.592;7.180;2023-11-21T13:50:41;25.27;;;10.25;;
37955;SDS011;23776;51.592;7.180;2023-11-21T13:53:22;24.13;;;10.90;;
37955;SDS011;23776;51.592;7.180;2023-11-21T13:55:52;26.42;;;9.98;;
37955;SDS011;23776;51.592;7.180;2023-11-21T13:58:24;24.35;;;9.30;;
37955;SDS011;23776;51.592;7.180;2023-11-21T14:01:06;24.48;;;9.23;;
37955;SDS011;23776;51.592;7.180;2023-11-21T14:03:50;21.65;;;9.07;;
37955;SDS011;23776;51.592;7.180;2023-11-21T14:06:22;25.25;;;9.27;;
37955;SDS011;23776;51.592;7.180;2023-11-21T14:08:53;16.23;;;7.05;;
37955;SDS011;23776;51.592;7.180;2023-11-21T14:11:21;18.77;;;8.07;;
37955;SDS011;23776;51.592;7.180;2023-11-21T14:13:47;19.00;;;7.85;;
37955;SDS011;23776;51.592;7.180;2023-11-21T14:16:14;18.83;;;7.95;;
37955;SDS011;23776;51.592;7.180;2023-11-21T14:18:42;15.23;;;6.82;;
37955;SDS011;23776;51.592;7.180;2023-11-21T14:21:18;12.88;;;7.32;;
37955;SDS011;23776;51.592;7.180;2023-11-21T14:23:44;15.27;;;5.38;;
37955;SDS011;23776;51.592;7.180;2023-11-21T14:26:11;14.90;;;6.85;;
37955;SDS011;23776;51.592;7.180;2023-11-21T14:28:40;13.73;;;5.97;;
37955;SDS011;23776;51.592;7.180;2023-11-21T14:31:08;9.93;;;5.03;;
37955;SDS011;23776;51.592;7.180;2023-11-21T14:33:40;15.82;;;5.90;;
37955;SDS011;23776;51.592;7.180;2023-11-21T14:36:06;12.80;;;5.70;;
37955;SDS011;23776;51.592;7.180;2023-11-21T14:38:35;10.65;;;5.63;;
37955;SDS011;23776;51.592;7.180;2023-11-21T14:41:04;10.07;;;5.00;;
37955;SDS011;23776;51.592;7.180;2023-11-21T14:43:34;8.05;;;4.55;;
37955;SDS011;23776;51.592;7.180;2023-11-21T14:46:01;13.27;;;5.10;;